Time;durP1;ratioP1;P1;durP2;ratioP2;P2;SDS_P1;SDS_P2;PMS_P1;PMS_P2;Temp;Humidity;BMP_temperature;BMP_pressure;BME280_temperature;BME280_humidity;BME280_pressure;Samples;Min_cycle;Max_cycle;Signal;HPM_P1;HPM_P2
2022/08/10 00:00:20;;;;;;;4.28;1.80;;;24.20;49.50;;;;;;4933801;29;20038;-74
2022/08/10 00:02:55;;;;;;;4.68;1.60;;;24.30;49.60;;;;;;4939818;29;20039;-73
2022/08/10 00:05:22;;;;;;;3.72;1.95;;;24.20;49.60;;;;;;4942770;29;20086;-73
2022/08/10 00:07:49;;;;;;;4.90;1.90;;;24.30;49.60;;;;;;4927175;29;20039;-73
2022/08/10 00:10:17;;;;;;;4.57;1.75;;;24.20;49.60;;;;;;4949602;29;20055;-73
2022/08/10 00:12:43;;;;;;;5.55;1.85;;;24.20;49.80;;;;;;4957168;28;20057;-73
2022/08/10 00:15:12;;;;;;;6.70;1.90;;;24.20;49.80;;;;;;4949559;28;20029;-73
2022/08/10 00:17:38;;;;;;;7.22;1.65;;;24.20;49.90;;;;;;4947391;29;20044;-73
2022/08/10 00:20:05;;;;;;;4.03;1.65;;;24.20;49.90;;;;;;4974952;23;20094;-69
2022/08/10 00:22:31;;;;;;;3.95;1.45;;;24.20;50.50;;;;;;4963810;28;20033;-69
2022/08/10 00:24:56;;;;;;;4.07;1.77;;;24.20;49.90;;;;;;4968181;28;20423;-69
2022/08/10 00:27:26;;;;;;;4.97;1.90;;;24.20;50.00;;;;;;4966592;28;20027;-69
2022/08/10 00:29:53;;;;;;;3.60;1.50;;;24.20;50.00;;;;;;4947382;28;20403;-69
2022/08/10 00:32:19;;;;;;;3.90;1.40;;;24.20;50.00;;;;;;4963552;28;20023;-69
2022/08/10 00:34:45;;;;;;;6.47;1.90;;;24.20;50.00;;;;;;4973123;28;20026;-69
2022/08/10 00:37:16;;;;;;;4.45;1.50;;;24.20;50.10;;;;;;4966463;28;20031;-69
2022/08/10 00:39:43;;;;;;;5.00;1.85;;;24.20;50.20;;;;;;4963890;28;20039;-69
2022/08/10 00:42:10;;;;;;;5.75;2.10;;;24.20;50.20;;;;;;4938494;28;20034;-69
2022/08/10 00:44:38;;;;;;;3.95;1.50;;;24.10;50.20;;;;;;4959665;28;20046;-69
2022/08/10 00:47:05;;;;;;;5.20;1.75;;;24.20;50.20;;;;;;4961580;28;20499;-69
2022/08/10 00:49:31;;;;;;;5.90;1.83;;;24.10;50.20;;;;;;4949001;28;20030;-69
2022/08/10 00:51:57;;;;;;;4.72;1.63;;;24.10;50.20;;;;;;4941391;28;20029;-69
2022/08/10 00:54:23;;;;;;;3.75;1.83;;;24.20;50.30;;;;;;4961052;28;20154;-69
2022/08/10 00:56:49;;;;;;;5.13;1.83;;;24.20;50.20;;;;;;4965624;28;20058;-69
2022/08/10 00:59:16;;;;;;;2.67;1.55;;;24.20;50.10;;;;;;4949369;28;20501;-69
2022/08/10 01:01:41;;;;;;;4.45;1.70;;;24.20;50.10;;;;;;4958523;28;20480;-69
2022/08/10 01:04:07;;;;;;;2.67;1.77;;;24.20;50.20;;;;;;4962447;28;20027;-69
2022/08/10 01:07:03;;;;;;;3.53;1.70;;;24.20;50.30;;;;;;4966572;28;20035;-69
2022/08/10 01:09:51;;;;;;;4.30;1.80;;;24.20;50.30;;;;;;4968746;28;20030;-69
2022/08/10 01:12:20;;;;;;;6.95;1.52;;;24.20;50.20;;;;;;4962062;28;20475;-69
2022/08/10 01:14:54;;;;;;;2.58;1.60;;;24.20;50.30;;;;;;4962822;28;20407;-69
2022/08/10 01:17:28;;;;;;;5.53;2.10;;;24.20;50.20;;;;;;4960810;28;20035;-69
2022/08/10 01:20:12;;;;;;;6.63;1.73;;;24.20;50.30;;;;;;4960970;28;20039;-70
2022/08/10 01:22:44;;;;;;;4.47;1.70;;;24.20;50.30;;;;;;4966082;28;20042;-69
2022/08/10 01:25:25;;;;;;;4.45;1.70;;;24.10;50.40;;;;;;4968534;28;20137;-69
2022/08/10 01:28:10;;;;;;;3.15;1.83;;;24.20;50.40;;;;;;4940166;28;20039;-69
2022/08/10 01:30:37;;;;;;;3.63;1.65;;;24.20;50.50;;;;;;4958210;28;20118;-69
2022/08/10 01:33:20;;;;;;;7.63;1.98;;;24.10;50.50;;;;;;4971414;28;20039;-70
2022/08/10 01:35:54;;;;;;;5.53;2.00;;;24.10;50.50;;;;;;4966552;28;20023;-70
2022/08/10 01:38:24;;;;;;;7.22;1.85;;;24.10;50.60;;;;;;4968628;28;20078;-70
2022/08/10 01:41:05;;;;;;;4.20;1.88;;;24.10;50.60;;;;;;4962400;28;20031;-70
2022/08/10 01:43:35;;;;;;;4.90;1.92;;;24.10;50.70;;;;;;4965753;28;20027;-70
2022/08/10 01:46:04;;;;;;;4.55;2.08;;;24.10;50.60;;;;;;4964615;28;20035;-70
2022/08/10 01:48:33;;;;;;;2.92;2.03;;;24.10;50.80;;;;;;4963375;28;20476;-69
2022/08/10 01:51:08;;;;;;;4.97;1.95;;;24.10;50.80;;;;;;4961477;28;20031;-69
2022/08/10 01:53:41;;;;;;;5.35;2.10;;;24.10;50.80;;;;;;4961794;28;20043;-69
2022/08/10 01:56:11;;;;;;;4.38;2.00;;;24.10;50.90;;;;;;4965736;28;20019;-70
2022/08/10 01:58:39;;;;;;;4.18;1.90;;;24.10;50.90;;;;;;4963882;28;20436;-70
2022/08/10 02:01:08;;;;;;;4.05;1.80;;;24.00;50.90;;;;;;4967055;28;20365;-70
2022/08/10 02:03:36;;;;;;;6.22;1.83;;;24.10;51.00;;;;;;4960996;28;20499;-70
2022/08/10 02:06:03;;;;;;;5.93;2.20;;;24.00;51.10;;;;;;4966060;28;20050;-70
2022/08/10 02:08:31;;;;;;;7.68;2.10;;;24.00;51.00;;;;;;4965130;28;20027;-70
2022/08/10 02:11:00;;;;;;;3.78;1.70;;;24.00;51.10;;;;;;4962096;28;20395;-70
2022/08/10 02:13:27;;;;;;;5.13;2.20;;;24.00;51.10;;;;;;4960641;28;20054;-70
2022/08/10 02:15:55;;;;;;;9.15;1.85;;;24.00;51.20;;;;;;4971195;28;20273;-70
2022/08/10 02:18:22;;;;;;;4.63;1.60;;;24.10;51.20;;;;;;4964079;28;20404;-69
2022/08/10 02:20:50;;;;;;;3.70;1.70;;;24.00;51.00;;;;;;4960538;28;20089;-70
2022/08/10 02:23:30;;;;;;;4.90;1.80;;;24.00;51.00;;;;;;4954991;28;20467;-70
2022/08/10 02:25:58;;;;;;;4.43;1.90;;;24.10;51.10;;;;;;4961248;28;20105;-70
2022/08/10 02:28:27;;;;;;;4.93;1.90;;;24.00;51.10;;;;;;4960511;28;20031;-70
2022/08/10 02:30:56;;;;;;;10.27;1.88;;;24.00;51.10;;;;;;4960541;28;20026;-70
2022/08/10 02:33:25;;;;;;;2.88;1.63;;;24.00;51.80;;;;;;4965432;28;20518;-70
2022/08/10 02:35:52;;;;;;;3.27;1.73;;;24.00;51.30;;;;;;4943257;28;20027;-70
2022/08/10 02:38:52;;;;;;;2.75;1.70;;;24.00;51.30;;;;;;4971744;28;20066;-70
2022/08/10 02:41:21;;;;;;;4.00;1.90;;;24.00;51.20;;;;;;4955734;28;20392;-70
2022/08/10 02:43:56;;;;;;;2.67;1.70;;;24.10;51.20;;;;;;4965770;28;20093;-70
2022/08/10 02:46:37;;;;;;;5.28;2.08;;;24.10;51.20;;;;;;4963524;28;20270;-70
2022/08/10 02:49:04;;;;;;;3.58;1.80;;;24.00;51.20;;;;;;4965260;28;20094;-70
2022/08/10 02:51:48;;;;;;;7.30;2.15;;;24.00;51.30;;;;;;4964428;28;20030;-69
2022/08/10 02:54:20;;;;;;;5.70;1.80;;;24.10;51.40;;;;;;4962233;28;20039;-70
2022/08/10 02:57:08;;;;;;;5.80;1.88;;;24.00;51.30;;;;;;4956549;28;20027;-69
2022/08/10 02:59:41;;;;;;;8.60;2.03;;;24.00;51.20;;;;;;4951418;28;20110;-69
2022/08/10 03:02:12;;;;;;;5.00;1.98;;;24.10;51.30;;;;;;4966218;28;20392;-69
2022/08/10 03:04:47;;;;;;;6.40;2.17;;;24.10;51.30;;;;;;4969982;28;20030;-69
2022/08/10 03:07:19;;;;;;;6.82;1.95;;;24.00;51.30;;;;;;4962910;28;20601;-70
2022/08/10 03:09:47;;;;;;;6.00;2.20;;;24.00;51.30;;;;;;4966710;28;20480;-69
2022/08/10 03:12:15;;;;;;;6.70;2.30;;;24.10;51.40;;;;;;4952916;29;20034;-69
2022/08/10 03:14:43;;;;;;;5.30;2.10;;;24.00;51.40;;;;;;4959844;28;20482;-70
2022/08/10 03:17:11;;;;;;;3.45;1.90;;;24.10;51.40;;;;;;4947872;28;20030;-70
2022/08/10 03:19:39;;;;;;;3.95;1.88;;;24.00;51.40;;;;;;4963931;28;20053;-70
2022/08/10 03:22:06;;;;;;;5.45;2.20;;;24.00;51.90;;;;;;4964483;28;20072;-70
2022/08/10 03:24:33;;;;;;;4.65;2.10;;;24.00;51.30;;;;;;4964217;28;20023;-69
2022/08/10 03:27:00;;;;;;;4.93;2.15;;;24.00;51.30;;;;;;4962371;28;20031;-69
2022/08/10 03:29:27;;;;;;;6.88;2.05;;;24.00;51.40;;;;;;4959351;28;20050;-69
2022/08/10 03:31:54;;;;;;;3.88;1.88;;;24.00;51.40;;;;;;4952272;28;20035;-69
2022/08/10 03:34:21;;;;;;;5.78;1.85;;;24.00;51.50;;;;;;4960601;28;20039;-69
2022/08/10 03:36:47;;;;;;;4.93;1.90;;;24.10;51.50;;;;;;4960854;28;20399;-69
2022/08/10 03:39:13;;;;;;;4.45;1.73;;;24.10;51.50;;;;;;4947188;28;20049;-70
2022/08/10 03:41:46;;;;;;;5.88;2.38;;;24.00;51.50;;;;;;4957689;28;20110;-70
2022/08/10 03:44:18;;;;;;;3.17;1.95;;;24.00;51.50;;;;;;4952738;28;20053;-69
2022/08/10 03:46:45;;;;;;;5.70;1.92;;;24.10;51.60;;;;;;4962881;28;20037;-69
2022/08/10 03:49:13;;;;;;;6.53;2.28;;;24.00;51.50;;;;;;4961951;28;20029;-69
2022/08/10 03:51:40;;;;;;;5.25;2.05;;;24.10;51.60;;;;;;4957329;28;20023;-69
2022/08/10 03:54:07;;;;;;;6.28;2.28;;;24.00;51.60;;;;;;4954335;28;20101;-69
2022/08/10 03:56:38;;;;;;;5.50;2.25;;;24.00;52.20;;;;;;4955907;28;20047;-69
2022/08/10 03:59:12;;;;;;;4.97;1.85;;;24.00;51.60;;;;;;4960230;28;20031;-69
2022/08/10 04:01:41;;;;;;;3.90;1.80;;;24.10;51.70;;;;;;4951872;28;20109;-70
2022/08/10 04:04:07;;;;;;;7.03;2.13;;;24.00;51.70;;;;;;4967213;28;20027;-70
2022/08/10 04:06:33;;;;;;;4.15;1.63;;;24.00;51.60;;;;;;4965887;28;20035;-69
2022/08/10 04:09:01;;;;;;;6.18;2.17;;;24.00;51.70;;;;;;4961151;28;20037;-70
2022/08/10 04:11:26;;;;;;;4.90;2.03;;;24.00;51.70;;;;;;4965845;28;20110;-70
2022/08/10 04:13:52;;;;;;;6.03;2.45;;;24.00;51.70;;;;;;4963389;28;20444;-70
2022/08/10 04:16:18;;;;;;;8.30;2.55;;;24.00;51.80;;;;;;4943683;28;20027;-70
2022/08/10 04:18:44;;;;;;;4.75;1.80;;;24.00;51.70;;;;;;4959949;28;20038;-69
2022/08/10 04:21:37;;;;;;;2.90;1.90;;;24.00;51.80;;;;;;4968849;28;20067;-69
2022/08/10 04:24:06;;;;;;;7.03;2.30;;;24.00;52.00;;;;;;4958619;28;20046;-70
2022/08/10 04:26:32;;;;;;;7.25;2.40;;;24.00;51.90;;;;;;4956556;28;20032;-70
2022/08/10 04:28:58;;;;;;;4.20;2.22;;;24.00;51.90;;;;;;4967284;28;20089;-70
2022/08/10 04:31:25;;;;;;;6.57;2.30;;;24.00;52.00;;;;;;4959603;28;20055;-69
2022/08/10 04:33:53;;;;;;;4.03;2.10;;;24.00;52.00;;;;;;4945634;28;20030;-70
2022/08/10 04:36:21;;;;;;;4.53;2.17;;;24.00;52.60;;;;;;4959765;28;20045;-70
2022/08/10 04:38:48;;;;;;;6.80;2.10;;;24.00;52.00;;;;;;4959937;28;20023;-70
2022/08/10 04:41:15;;;;;;;7.55;2.40;;;24.00;52.00;;;;;;4966533;28;20027;-70
2022/08/10 04:43:41;;;;;;;5.97;2.40;;;23.90;52.00;;;;;;4958559;28;20031;-70
2022/08/10 04:46:07;;;;;;;5.22;2.47;;;24.00;52.10;;;;;;4965561;28;20027;-70
2022/08/10 04:48:33;;;;;;;10.40;2.90;;;24.00;52.20;;;;;;4967004;28;20031;-70
2022/08/10 04:50:58;;;;;;;4.63;2.00;;;23.90;52.30;;;;;;4965172;28;20491;-70
2022/08/10 04:53:24;;;;;;;3.92;2.22;;;23.90;52.40;;;;;;4962077;28;20023;-70
2022/08/10 04:55:50;;;;;;;5.00;2.45;;;23.90;52.40;;;;;;4941133;29;20058;-70
2022/08/10 04:58:16;;;;;;;7.75;2.67;;;23.90;52.50;;;;;;4962086;28;20078;-70
2022/08/10 05:00:42;;;;;;;5.70;2.40;;;23.90;52.60;;;;;;4972026;28;20475;-70
2022/08/10 05:03:08;;;;;;;6.45;3.10;;;23.90;52.60;;;;;;4964410;28;20031;-70
2022/08/10 05:05:36;;;;;;;9.07;2.83;;;23.90;52.60;;;;;;4944279;28;20111;-69
2022/08/10 05:08:05;;;;;;;8.77;2.97;;;23.90;52.70;;;;;;4964741;28;20063;-69
2022/08/10 05:10:31;;;;;;;9.20;2.72;;;23.90;52.90;;;;;;4958651;28;20051;-69
2022/08/10 05:12:57;;;;;;;7.95;2.92;;;23.90;52.90;;;;;;4963467;28;20027;-69
2022/08/10 05:15:23;;;;;;;8.95;2.85;;;23.80;52.80;;;;;;4960693;28;20581;-69
2022/08/10 05:17:49;;;;;;;10.27;3.47;;;23.80;53.00;;;;;;4964194;28;20555;-69
2022/08/10 05:20:15;;;;;;;7.97;3.05;;;23.80;53.00;;;;;;4971922;28;20082;-69
2022/08/10 05:22:43;;;;;;;5.43;2.70;;;23.80;53.00;;;;;;4954820;28;20090;-69
2022/08/10 05:25:17;;;;;;;8.38;3.00;;;23.80;53.10;;;;;;4969003;28;20472;-69
2022/08/10 05:27:45;;;;;;;7.00;3.00;;;23.80;53.20;;;;;;4959200;28;20035;-69
2022/08/10 05:30:17;;;;;;;4.95;3.15;;;23.80;53.20;;;;;;4946040;29;20035;-69
2022/08/10 05:32:43;;;;;;;10.65;3.15;;;23.80;53.30;;;;;;4962379;28;20075;-69
2022/08/10 05:35:09;;;;;;;5.82;2.65;;;23.80;53.40;;;;;;4962913;28;20483;-69
2022/08/10 05:37:35;;;;;;;6.25;3.00;;;23.80;53.40;;;;;;4966859;28;20058;-69
2022/08/10 05:40:05;;;;;;;10.82;3.58;;;23.80;53.60;;;;;;4957618;28;20027;-69
2022/08/10 05:42:32;;;;;;;7.82;2.85;;;23.70;53.60;;;;;;4963451;28;20078;-70
2022/08/10 05:44:58;;;;;;;5.68;2.92;;;23.70;53.60;;;;;;4946821;28;20506;-69
2022/08/10 05:47:24;;;;;;;8.65;2.78;;;23.70;53.70;;;;;;4966003;28;20038;-69
2022/08/10 05:49:51;;;;;;;7.65;3.08;;;23.70;53.70;;;;;;4965506;28;20059;-69
2022/08/10 05:52:18;;;;;;;9.68;3.05;;;23.70;53.80;;;;;;4945900;28;20382;-69
2022/08/10 05:54:46;;;;;;;9.30;3.28;;;23.70;53.80;;;;;;4961874;28;20058;-69
2022/08/10 05:57:14;;;;;;;8.85;2.65;;;23.70;53.80;;;;;;4962525;28;20027;-69
2022/08/10 05:59:45;;;;;;;7.05;3.10;;;23.70;53.90;;;;;;4955200;28;20395;-69
2022/08/10 06:02:15;;;;;;;11.57;2.90;;;23.70;53.90;;;;;;4959721;28;20106;-69
2022/08/10 06:04:44;;;;;;;9.48;2.60;;;23.70;53.80;;;;;;4946005;29;20065;-68
2022/08/10 06:07:12;;;;;;;9.93;2.42;;;23.70;53.60;;;;;;4964979;28;20062;-68
2022/08/10 06:09:40;;;;;;;9.20;2.90;;;23.80;53.70;;;;;;4974079;28;20033;-69
2022/08/10 06:12:08;;;;;;;8.70;2.63;;;23.80;53.70;;;;;;4956519;28;20034;-68
2022/08/10 06:17:21;;;;;;;6.35;2.83;;;23.80;53.80;;;;;;4961217;28;20392;-69
2022/08/10 06:19:48;;;;;;;16.13;3.50;;;23.80;53.80;;;;;;4971976;23;20175;-73
2022/08/10 06:22:15;;;;;;;8.50;2.70;;;23.80;53.90;;;;;;4990460;28;20084;-73
2022/08/10 06:24:42;;;;;;;8.55;2.50;;;23.80;53.70;;;;;;4951497;28;20042;-73
2022/08/10 06:27:08;;;;;;;11.05;2.85;;;23.80;53.70;;;;;;4957280;28;20482;-73
2022/08/10 06:29:39;;;;;;;7.80;2.78;;;23.80;54.00;;;;;;4961251;28;20030;-73
2022/08/10 06:32:07;;;;;;;11.50;3.08;;;23.80;54.30;;;;;;4958474;28;20042;-73
2022/08/10 06:34:38;;;;;;;7.72;2.67;;;23.80;54.10;;;;;;4950377;28;20061;-73
2022/08/10 06:37:06;;;;;;;7.68;2.55;;;23.80;54.20;;;;;;4971373;28;20053;-74
2022/08/10 06:39:33;;;;;;;9.57;2.53;;;23.80;54.70;;;;;;4956328;28;20446;-73
2022/08/10 06:42:22;;;;;;;6.20;2.58;;;23.80;54.10;;;;;;4975726;28;20084;-73
2022/08/10 06:44:51;;;;;;;9.57;2.67;;;23.80;54.10;;;;;;4956775;28;20516;-74
2022/08/10 06:47:18;;;;;;;5.80;2.35;;;23.80;54.20;;;;;;4957819;28;20060;-74
2022/08/10 06:49:48;;;;;;;7.25;2.88;;;23.80;54.20;;;;;;4990489;28;20152;-74
2022/08/10 06:52:14;;;;;;;8.75;2.78;;;23.80;54.10;;;;;;4994636;28;20397;-74
2022/08/10 06:54:42;;;;;;;5.60;2.45;;;23.80;54.00;;;;;;4960136;28;20026;-74
2022/08/10 06:57:10;;;;;;;9.15;2.67;;;23.80;53.90;;;;;;4991900;28;20026;-74
2022/08/10 06:59:43;;;;;;;5.72;3.03;;;23.90;53.70;;;;;;4958713;28;20486;-74
2022/08/10 07:02:14;;;;;;;5.75;2.35;;;23.90;53.60;;;;;;4920198;29;20509;-74
2022/08/10 07:04:59;;;;;;;7.80;2.38;;;23.90;53.50;;;;;;4914749;29;20400;-74
2022/08/10 07:07:27;;;;;;;5.45;2.50;;;23.90;53.30;;;;;;4914838;29;20116;-75
2022/08/10 07:09:55;;;;;;;3.33;1.88;;;23.90;53.30;;;;;;4897912;29;20083;-74
2022/08/10 07:12:22;;;;;;;4.75;2.35;;;24.00;53.50;;;;;;4925539;29;20044;-74
2022/08/10 07:14:50;;;;;;;10.35;2.47;;;24.00;53.70;;;;;;4887436;29;20397;-74
2022/08/10 07:17:20;;;;;;;4.18;2.35;;;24.00;53.60;;;;;;4895078;29;20033;-76
2022/08/10 07:19:47;;;;;;;;;;;24.00;53.30;;;;;;4905295;29;20036;-75
2022/08/10 07:22:15;;;;;;;5.47;2.85;;;24.00;53.60;;;;;;4884297;29;20230;-77
2022/08/10 07:24:43;;;;;;;6.05;2.65;;;24.00;54.40;;;;;;4905128;29;20247;-76
2022/08/10 07:27:11;;;;;;;7.40;3.13;;;23.80;54.70;;;;;;4896421;29;20564;-76
2022/08/10 07:29:39;;;;;;;8.27;2.90;;;23.80;54.30;;;;;;4906925;29;20028;-76
2022/08/10 07:32:06;;;;;;;9.13;2.90;;;23.90;54.30;;;;;;4911700;29;20389;-76
2022/08/10 07:34:36;;;;;;;7.85;2.85;;;23.90;54.10;;;;;;4894681;29;20035;-76
2022/08/10 07:37:05;;;;;;;7.72;2.97;;;23.90;54.10;;;;;;4922803;29;20033;-76
2022/08/10 07:39:36;;;;;;;7.30;2.72;;;23.90;54.30;;;;;;4891836;29;20523;-76
2022/08/10 07:42:04;;;;;;;9.88;2.67;;;23.90;54.10;;;;;;4893017;29;20135;-76
2022/08/10 07:44:32;;;;;;;8.82;2.67;;;24.00;53.90;;;;;;4897455;29;20047;-76
2022/08/10 07:47:02;;;;;;;9.60;2.63;;;24.00;54.00;;;;;;4892271;29;20036;-76
2022/08/10 07:49:35;;;;;;;8.20;2.63;;;24.10;54.20;;;;;;4916403;29;20039;-77
2022/08/10 07:52:05;;;;;;;5.75;2.53;;;24.00;54.30;;;;;;4901804;29;20112;-77
2022/08/10 07:54:45;;;;;;;9.20;2.80;;;24.00;54.10;;;;;;4895684;29;20049;-76
2022/08/10 07:57:21;;;;;;;6.85;2.13;;;23.90;54.10;;;;;;4900778;29;20044;-76
2022/08/10 07:59:53;;;;;;;3.80;2.40;;;23.90;54.00;;;;;;4920211;29;20056;-77
2022/08/10 08:02:34;;;;;;;6.80;2.13;;;23.90;53.90;;;;;;4907582;29;20040;-76
2022/08/10 08:05:04;;;;;;;7.90;2.35;;;24.00;53.70;;;;;;4906721;29;20397;-76
2022/08/10 08:07:31;;;;;;;5.13;2.17;;;23.90;53.90;;;;;;4898648;29;20041;-76
2022/08/10 08:09:58;;;;;;;7.80;2.20;;;24.00;53.80;;;;;;4905064;29;20500;-76
2022/08/10 08:12:25;;;;;;;5.00;2.40;;;24.00;53.60;;;;;;4897013;29;20096;-76
2022/08/10 08:14:52;;;;;;;5.70;2.28;;;24.00;53.60;;;;;;4909431;29;20131;-76
2022/08/10 08:17:20;;;;;;;3.70;1.95;;;23.80;52.30;;;;;;4908376;29;20036;-76
2022/08/10 08:19:49;;;;;;;8.35;2.17;;;23.60;51.50;;;;;;4904728;29;20048;-76
2022/08/10 08:22:17;;;;;;;7.50;2.23;;;23.50;50.70;;;;;;4904085;29;20037;-76
2022/08/10 08:24:43;;;;;;;5.95;2.10;;;23.60;51.20;;;;;;4878642;29;20120;-76
2022/08/10 08:27:18;;;;;;;3.42;1.83;;;23.60;51.20;;;;;;4893336;29;20115;-76
2022/08/10 08:29:46;;;;;;;3.33;1.80;;;23.60;50.90;;;;;;4884257;29;20401;-76
2022/08/10 08:32:16;;;;;;;5.25;1.98;;;23.70;51.30;;;;;;4888572;29;20032;-76
2022/08/10 08:34:43;;;;;;;6.70;2.50;;;23.80;51.50;;;;;;4903042;29;20082;-77
2022/08/10 08:37:13;;;;;;;7.03;2.28;;;23.80;51.20;;;;;;4876421;29;20046;-77
2022/08/10 08:39:40;;;;;;;;;;;23.80;50.80;;;;;;4921775;29;20037;-78
2022/08/10 08:42:38;;;;;;;5.13;2.00;;;23.70;50.40;;;;;;4901937;29;19915;-76
2022/08/10 08:45:18;;;;;;;6.88;1.80;;;23.50;50.10;;;;;;4884976;29;20167;-85
2022/08/10 08:48:24;;;;;;;3.78;2.15;;;23.50;50.10;;;;;;4915227;29;20043;-85
2022/08/10 08:51:25;;;;;;;5.32;2.08;;;23.50;49.90;;;;;;4884485;29;20064;-84
2022/08/10 08:54:28;;;;;;;13.15;2.53;;;23.50;49.60;;;;;;4889802;29;20043;-83
2022/08/10 08:57:30;;;;;;;14.93;3.20;;;23.50;52.10;;;;;;4881285;29;20128;-85
2022/08/10 09:00:24;;;;;;;27.60;4.95;;;23.60;54.10;;;;;;4907377;29;20448;-87
2022/08/10 09:03:20;;;;;;;13.07;2.88;;;23.80;63.20;;;;;;4892049;29;20028;-85
2022/08/10 09:06:04;;;;;;;8.68;2.35;;;23.90;57.30;;;;;;4887666;29;20028;-88
2022/08/10 09:09:01;;;;;;;13.30;3.05;;;23.80;52.20;;;;;;4906680;29;20033;-93
2022/08/10 09:11:50;;;;;;;16.77;2.80;;;23.90;54.40;;;;;;4884545;29;20412;-84
2022/08/10 09:14:34;;;;;;;9.63;2.20;;;24.00;54.40;;;;;;4888816;29;20037;-75
2022/08/10 09:17:19;;;;;;;5.97;2.15;;;24.00;54.00;;;;;;4881518;29;20131;-75
2022/08/10 09:19:54;;;;;;;11.27;2.60;;;24.10;52.70;;;;;;4923306;29;20084;-76
2022/08/10 09:22:29;;;;;;;7.65;2.55;;;24.20;51.80;;;;;;4881418;29;20453;-76
2022/08/10 09:25:04;;;;;;;7.15;2.53;;;24.20;51.00;;;;;;4903714;29;20392;-76
2022/08/10 09:27:59;;;;;;;11.23;2.72;;;24.20;51.40;;;;;;4910473;29;20032;-76
2022/08/10 09:30:42;;;;;;;8.48;2.20;;;24.20;51.40;;;;;;4897888;29;20029;-77
2022/08/10 09:33:14;;;;;;;10.63;2.72;;;24.20;51.70;;;;;;4920727;29;20064;-77
2022/08/10 09:35:48;;;;;;;11.68;2.60;;;24.20;51.60;;;;;;4899897;29;20036;-77
2022/08/10 09:38:27;;;;;;;24.60;2.88;;;24.20;51.40;;;;;;4917654;29;20040;-77
2022/08/10 09:40:59;;;;;;;4.32;1.98;;;24.20;51.30;;;;;;4916600;29;20127;-77
2022/08/10 09:43:49;;;;;;;6.45;2.25;;;24.20;51.50;;;;;;4932206;29;20039;-77
2022/08/10 09:46:32;;;;;;;;;;;24.30;51.60;;;;;;4916209;29;20051;-77
2022/08/10 09:49:07;;;;;;;4.68;1.83;;;24.30;51.50;;;;;;4885310;29;19942;-77
2022/08/10 09:51:43;;;;;;;13.73;2.50;;;24.30;51.40;;;;;;4932094;29;20083;-77
2022/08/10 09:54:41;;;;;;;6.38;2.25;;;24.30;51.10;;;;;;4917273;29;20080;-77
2022/08/10 09:57:30;;;;;;;9.30;2.00;;;24.30;51.60;;;;;;4899585;29;20039;-77
2022/08/10 10:00:07;;;;;;;4.55;2.10;;;24.30;52.10;;;;;;4900107;29;20489;-77
2022/08/10 10:02:40;;;;;;;7.20;2.20;;;24.30;51.60;;;;;;4915365;29;20597;-77
2022/08/10 10:05:15;;;;;;;6.40;2.38;;;24.30;51.50;;;;;;4915610;29;20324;-77
2022/08/10 10:07:49;;;;;;;4.68;1.80;;;24.20;51.60;;;;;;4900179;29;20032;-77
2022/08/10 10:10:41;;;;;;;4.20;1.75;;;24.30;51.30;;;;;;4915996;29;20060;-77
2022/08/10 10:13:13;;;;;;;7.95;2.10;;;24.30;51.80;;;;;;4900188;29;20130;-77
2022/08/10 10:15:47;;;;;;;7.65;2.10;;;24.30;51.40;;;;;;4915177;29;20032;-77
2022/08/10 10:18:28;;;;;;;6.45;2.00;;;24.30;51.30;;;;;;4931180;29;20110;-77
2022/08/10 10:21:14;;;;;;;8.23;1.77;;;24.30;51.70;;;;;;4915381;29;20485;-77
2022/08/10 10:24:03;;;;;;;5.07;1.98;;;24.30;51.40;;;;;;4916866;29;20028;-76
2022/08/10 10:26:46;;;;;;;8.25;2.08;;;24.30;51.50;;;;;;4916028;29;20060;-77
2022/08/10 10:29:33;;;;;;;3.72;1.55;;;24.30;51.50;;;;;;4899893;29;20035;-77
2022/08/10 10:32:24;;;;;;;4.32;1.88;;;24.30;51.10;;;;;;4916591;29;20039;-77
2022/08/10 10:34:55;;;;;;;3.78;1.70;;;24.30;51.20;;;;;;4916517;29;20029;-76
2022/08/10 10:37:23;;;;;;;5.32;1.88;;;24.30;51.10;;;;;;4899248;29;20051;-76
2022/08/10 10:39:53;;;;;;;5.43;1.80;;;24.30;51.60;;;;;;4915454;29;20339;-76
2022/08/10 10:42:59;;;;;;;4.65;1.65;;;24.30;51.60;;;;;;4915466;29;20032;-76
2022/08/10 10:45:41;;;;;;;6.20;2.00;;;24.30;51.40;;;;;;4914534;29;20039;-76
2022/08/10 10:48:52;;;;;;;2.72;1.60;;;24.30;50.80;;;;;;4916288;29;20035;-76
2022/08/10 10:51:30;;;;;;;5.78;1.90;;;24.30;51.20;;;;;;4882937;29;20401;-76
2022/08/10 10:54:18;;;;;;;6.03;1.70;;;24.30;50.90;;;;;;4916323;29;20021;-76
2022/08/10 10:56:58;;;;;;;4.60;1.90;;;24.30;51.20;;;;;;4915452;29;20115;-76
2022/08/10 10:59:27;;;;;;;3.58;1.63;;;24.30;51.10;;;;;;4916196;29;20047;-76
2022/08/10 11:02:07;;;;;;;6.35;2.05;;;24.30;51.10;;;;;;4899273;29;20044;-77
2022/08/10 11:04:45;;;;;;;3.10;1.60;;;24.30;50.90;;;;;;4930656;29;20477;-76
2022/08/10 11:07:27;;;;;;;5.07;1.70;;;24.30;50.50;;;;;;4915520;29;20410;-76
2022/08/10 11:09:58;;;;;;;5.85;1.85;;;24.30;50.50;;;;;;4915964;29;20397;-76
2022/08/10 11:12:32;;;;;;;3.13;1.70;;;24.30;50.50;;;;;;4899210;29;20028;-76
2022/08/10 11:15:10;;;;;;;4.32;1.70;;;24.30;50.40;;;;;;4914839;29;20460;-77
2022/08/10 11:17:43;;;;;;;2.85;1.50;;;24.30;50.80;;;;;;4899222;29;20048;-77
2022/08/10 11:20:25;;;;;;;5.80;2.00;;;24.30;50.50;;;;;;4915780;29;20039;-77
2022/08/10 11:23:09;;;;;;;2.65;1.50;;;24.30;50.40;;;;;;4915902;29;20079;-76
2022/08/10 11:25:43;;;;;;;4.20;1.90;;;24.30;50.60;;;;;;4915084;29;20055;-76
2022/08/10 11:28:34;;;;;;;4.93;1.80;;;24.30;50.40;;;;;;4915746;29;20040;-76
2022/08/10 11:31:15;;;;;;;4.90;1.80;;;24.30;50.40;;;;;;4881074;29;20044;-76
2022/08/10 11:33:57;;;;;;;3.90;1.65;;;24.30;50.30;;;;;;4930553;29;20024;-76
2022/08/10 11:36:42;;;;;;;3.22;1.42;;;24.30;50.30;;;;;;4897748;29;20485;-76
2022/08/10 11:39:54;;;;;;;2.40;1.55;;;24.30;50.50;;;;;;4914721;29;20050;-77
2022/08/10 11:42:35;;;;;;;2.75;1.52;;;24.30;50.40;;;;;;4882827;29;20035;-77
2022/08/10 11:45:07;;;;;;;2.42;1.55;;;24.30;50.30;;;;;;4897571;29;20031;-76
2022/08/10 11:47:52;;;;;;;3.45;1.67;;;24.30;51.00;;;;;;4898753;29;20067;-76
2022/08/10 11:50:27;;;;;;;4.07;1.77;;;24.30;50.30;;;;;;4915461;29;20044;-77
2022/08/10 11:53:01;;;;;;;4.30;1.98;;;24.30;50.10;;;;;;4930034;29;20024;-76
2022/08/10 11:55:32;;;;;;;3.15;1.42;;;24.30;50.10;;;;;;4913853;29;20043;-77
2022/08/10 12:00:55;;;;;;;2.00;1.45;;;24.30;50.30;;;;;;4914259;29;20477;-77
2022/08/10 12:03:21;;;;;;;2.47;1.40;;;24.20;50.00;;;;;;4898580;29;20040;-77
2022/08/10 12:05:50;;;;;;;4.35;1.85;;;24.30;50.50;;;;;;4914711;29;20032;-77
2022/08/10 12:08:20;;;;;;;2.60;1.50;;;24.30;50.20;;;;;;4898298;29;20501;-76
2022/08/10 12:10:49;;;;;;;2.90;1.50;;;24.30;50.10;;;;;;4898482;29;20032;-76
2022/08/10 12:13:51;;;;;;;1.70;1.30;;;24.30;50.10;;;;;;4915528;29;20477;-76
2022/08/10 12:16:20;;;;;;;5.57;2.20;;;24.20;50.20;;;;;;4897261;29;20048;-77
2022/08/10 12:19:01;;;;;;;5.63;1.67;;;24.30;50.90;;;;;;4914277;29;20489;-77
2022/08/10 12:21:44;;;;;;;4.88;2.40;;;24.40;47.00;;;;;;4949135;23;20046;-86
2022/08/10 12:24:17;;;;;;;10.52;1.77;;;24.60;46.20;;;;;;4931125;29;20114;-88
2022/08/10 12:27:27;;;;;;;6.18;1.58;;;24.70;43.60;;;;;;4938844;28;20039;-90
2022/08/10 12:30:35;;;;;;;6.88;1.50;;;24.60;44.20;;;;;;4970453;28;20042;-86
2022/08/10 12:33:20;;;;;;;5.10;1.70;;;24.70;43.00;;;;;;4972305;28;20027;-87
2022/08/10 12:36:21;;;;;;;4.28;1.75;;;24.80;41.20;;;;;;4957292;28;20031;-87
2022/08/10 12:39:33;;;;;;;7.40;1.48;;;24.80;42.00;;;;;;4958589;28;20027;-87
2022/08/10 12:42:33;;;;;;;3.58;1.55;;;24.70;41.00;;;;;;4971438;28;20050;-88
2022/08/10 12:45:16;;;;;;;4.57;1.70;;;24.60;41.00;;;;;;4917933;28;20058;-88
2022/08/10 12:47:57;;;;;;;5.80;1.50;;;24.60;40.50;;;;;;4941159;28;20454;-86
2022/08/10 12:50:54;;;;;;;4.35;1.75;;;24.60;40.00;;;;;;4959686;28;20043;-88
2022/08/10 12:54:00;;;;;;;4.47;2.03;;;24.60;40.20;;;;;;4972015;28;20384;-88
2022/08/10 12:56:36;;;;;;;5.15;1.70;;;24.90;40.10;;;;;;4957086;28;20105;-88
2022/08/10 12:59:08;;;;;;;8.85;1.77;;;25.10;40.20;;;;;;4959875;28;20031;-87
2022/08/10 13:01:51;;;;;;;5.75;1.80;;;25.00;39.30;;;;;;4959613;28;20034;-86
2022/08/10 13:04:37;;;;;;;4.32;2.00;;;24.90;39.40;;;;;;4962903;28;20031;-86
2022/08/10 13:07:04;;;;;;;6.55;2.05;;;25.00;40.70;;;;;;4974039;28;20103;-87
2022/08/10 13:09:32;;;;;;;3.15;1.67;;;25.00;39.90;;;;;;4974842;28;20053;-87
2022/08/10 13:12:07;;;;;;;5.35;2.17;;;24.90;39.60;;;;;;4942495;28;20121;-89
2022/08/10 13:14:44;;;;;;;7.57;2.42;;;24.80;39.80;;;;;;4959301;28;20035;-87
2022/08/10 13:17:12;;;;;;;6.47;2.25;;;24.80;38.40;;;;;;4941888;28;20038;-86
2022/08/10 13:19:43;;;;;;;3.97;2.25;;;24.80;38.70;;;;;;4974252;28;20062;-81
2022/08/10 13:22:11;;;;;;;4.35;2.40;;;24.80;39.10;;;;;;4975132;28;20030;-80
2022/08/10 13:24:41;;;;;;;6.30;2.28;;;24.80;38.90;;;;;;4975011;28;20468;-79
2022/08/10 13:27:10;;;;;;;4.13;2.00;;;24.70;41.40;;;;;;4973153;28;20027;-79